Latest Weather Observations for Westmere

IDV60801

Issued at 9:32 am EDT Thursday 23 January 2020 (issued every 10 minutes, with the page automatically refreshed every 10 minutes)

About weather observations | Map of weather stations | Latest weather observations for VIC | Other Formats
Station Details ID: 089112 Name: WESTMERE Lat: -37.71 Lon: 142.94 Height: 226.0 m
Data from the previous 72 hours. | See also: Recent months at Westmere
Date/Time
EDT
Temp
°C
App
Temp
°C
Dew
Point
°C
Rel
Hum
%
Delta-T
°C
Wind Press
QNH
hPa
Press
MSL
hPa
Rain since
9am
mm
Dir  Spd
km/h
Gust
km/h
Spd
kts
Gust
kts
23/09:30am 13.4 8.8 10.9 85 1.3 N 26 35 14 19 996.0 995.2 0.0
23/09:00am 13.4 9.3 11.6 89 1.0 NNW 24 35 13 19 995.9 995.1 11.4
23/08:30am 12.8 8.3 11.5 92 0.7 N 26 35 14 19 995.7 994.9 11.4
23/08:00am 12.2 8.4 11.3 94 0.5 N 22 28 12 15 995.5 994.7 11.4
23/07:30am 11.9 8.4 11.0 94 0.5 N 20 28 11 15 995.9 995.1 11.4
23/07:00am 11.9 8.7 11.1 95 0.4 N 19 26 10 14 995.9 995.1 11.4
23/06:30am 11.1 8.4 10.2 94 0.5 N 15 19 8 10 995.9 995.1 11.2
23/06:00am 10.8 7.9 9.7 93 0.6 N 15 19 8 10 996.2 995.4 11.2
23/05:30am 10.7 8.9 9.6 93 0.6 N 9 13 5 7 996.4 995.6 11.0
23/05:00am 10.7 9.3 9.5 92 0.6 NNW 7 11 4 6 996.6 995.8 11.0
23/04:30am 10.7 8.5 9.5 92 0.6 WNW 11 19 6 10 997.0 996.2 10.4
23/04:00am 11.6 10.5 10.7 94 0.5 NNW 7 13 4 7 997.0 996.2 9.8
23/03:30am 11.4 9.9 10.6 95 0.4 N 9 13 5 7 996.9 996.1 9.6
23/03:00am 11.4 10.3 10.6 95 0.4 NNE 7 11 4 6 997.2 996.4 9.6
23/02:30am 11.3 10.2 10.5 95 0.4 NNE 7 11 4 6 997.8 997.0 9.6
23/02:00am 11.3 9.4 10.5 95 0.4 NNE 11 15 6 8 998.2 997.4 9.6
23/01:30am 11.2 9.6 10.3 94 0.5 NE 9 15 5 8 998.5 997.7 9.6
23/01:00am 11.2 9.2 10.3 94 0.5 NNE 11 13 6 7 999.1 998.3 9.4
23/12:30am 11.1 9.8 9.9 92 0.6 NNE 7 11 4 6 999.3 998.5 8.6
23/12:00am 11.2 10.1 9.8 91 0.7 N 6 9 3 5 999.8 999.0 7.4
 
Date/Time
EDT
Temp
°C
App
Temp
°C
Dew
Point
°C
Rel
Hum
%
Delta-T
°C
Wind Press
QNH
hPa
Press
MSL
hPa
Rain since
9am
mm
Dir  Spd
km/h
Gust
km/h
Spd
kts
Gust
kts
22/11:30pm 11.4 10.2 9.5 88 1.0 N 6 9 3 5 999.9 999.1 5.8
22/11:00pm 11.8 10.1 9.9 88 1.0 NW 9 13 5 7 1000.4 999.6 4.4
22/10:30pm 12.3 11.9 9.9 85 1.2 W 2 4 1 2 1000.4 999.6 3.4
22/10:00pm 12.8 11.4 9.6 81 1.7 W 7 11 4 6 1000.1 999.3 2.2
22/09:30pm 13.1 11.8 10.1 82 1.6 WSW 7 9 4 5 1000.3 999.5 1.4
22/09:00pm 13.2 10.6 9.5 78 1.9 W 13 20 7 11 1000.4 999.6 1.0
22/08:30pm 14.0 11.4 9.2 73 2.5 W 13 22 7 12 999.7 998.9 0.6
22/08:00pm 14.4 10.7 9.4 72 2.6 WSW 19 24 10 13 999.2 998.4 0.6
22/07:30pm 14.5 10.8 10.1 75 2.3 SW 20 26 11 14 998.8 997.9 0.4
22/07:00pm 15.0 12.6 12.5 85 1.4 SW 17 28 9 15 998.9 998.1 0.4
22/06:30pm 15.9 14.1 13.2 84 1.5 SW 15 22 8 12 999.0 998.2 0.4
22/06:00pm 16.9 13.3 14.2 84 1.6 WSW 26 43 14 23 998.1 997.3 0.0
22/05:30pm 17.7 14.5 14.2 80 2.0 WSW 24 35 13 19 997.7 996.9 0.0
22/05:00pm 19.5 15.0 12.5 64 4.0 WSW 28 43 15 23 997.3 996.5 0.0
22/04:30pm 21.9 16.9 11.0 50 6.1 WSW 28 39 15 21 997.4 996.6 0.0
22/04:00pm 22.8 16.5 11.2 48 6.6 SW 35 56 19 30 996.9 996.1 0.0
22/03:52pm 23.0 14.8 10.4 45 7.0 W 44 61 24 33 996.8 996.0 0.0
22/03:49pm 23.8 15.1 9.8 41 7.7 WNW 46 63 25 34 996.4 995.6 0.0
22/03:47pm 28.6 19.2 7.2 26 11.6 NW 46 63 25 34 995.9 995.1 0.0
22/03:33pm 29.8 20.9 5.1 21 13.0 NNW 41 74 22 40 995.6 994.8 0.0
22/03:30pm 29.8 20.9 5.1 21 13.0 N 41 57 22 31 995.8 995.0 0.0
22/03:02pm 30.4 20.7 5.6 21 13.2 N 46 67 25 36 995.8 995.0 0.0
22/03:00pm 30.2 19.7 5.5 21 13.2 N 50 67 27 36 995.6 994.8 0.0
22/02:30pm 30.6 18.8 5.8 21 13.3 N 57 78 31 42 995.9 995.1 0.0
22/02:00pm 30.1 18.8 5.4 21 13.2 N 54 76 29 41 996.6 995.8 0.0
22/01:37pm 29.2 18.4 6.0 23 12.3 N 52 72 28 39 997.4 996.6 0.0
22/01:30pm 28.3 17.2 6.4 25 11.7 N 54 72 29 39 997.5 996.7 0.0
22/01:00pm 28.2 18.7 5.1 23 12.1 NNW 44 67 24 36 998.0 997.2 0.0
22/12:46pm 28.1 19.3 5.6 24 11.8 NNW 41 67 22 36 998.3 997.5 0.0
22/12:30pm 28.1 19.3 5.6 24 11.8 N 41 57 22 31 998.8 997.9 0.0
22/12:00pm 27.9 17.5 6.1 25 11.6 N 50 72 27 39 999.1 998.3 0.0
22/11:30am 27.5 17.5 6.3 26 11.2 N 48 69 26 37 999.7 998.9 0.0
22/11:00am 27.7 17.8 6.5 26 11.3 N 48 67 26 36 999.9 999.1 0.0
22/10:36am 27.3 17.4 6.7 27 11.0 N 48 69 26 37 1000.0 999.2 0.0
22/10:30am 27.0 16.7 6.4 27 10.9 N 50 69 27 37 1000.0 999.2 0.0
22/10:00am 26.9 18.1 7.4 29 10.5 N 43 65 23 35 1000.3 999.5 0.0
22/09:30am 25.6 16.8 7.2 31 9.8 N 43 65 23 35 1000.7 999.9 0.0
22/09:00am 24.5 15.2 7.6 34 9.1 N 46 65 25 35 1000.8 1000.0 0.0
22/08:58am 24.2 14.9 7.4 34 8.9 N 46 65 25 35 1000.7 999.9 0.0
22/08:30am 23.4 16.6 7.5 36 8.4 N 33 48 18 26 1001.0 1000.2 0.0
22/08:12am 21.9 16.0 7.7 40 7.5 N 28 50 15 27 1001.0 1000.2 0.0
22/08:00am 21.4 15.5 7.6 41 7.3 N 28 39 15 21 1000.9 1000.1 0.0
22/07:30am 20.6 15.5 7.6 43 6.8 N 24 32 13 17 1001.0 1000.2 0.0
22/07:00am 20.3 14.9 8.0 45 6.5 N 26 39 14 21 1000.9 1000.1 0.0
22/06:30am 20.1 13.6 8.1 46 6.3 N 32 46 17 25 1000.9 1000.1 0.0
22/06:00am 19.7 13.9 8.1 47 6.1 N 28 37 15 20 1001.4 1000.6 0.0
22/05:30am 19.2 12.9 7.6 47 6.0 N 30 39 16 21 1001.7 1000.9 0.0
22/05:00am 18.9 13.4 7.4 47 5.9 N 26 32 14 17 1001.9 1001.1 0.0
22/04:30am 19.0 14.1 7.1 46 6.1 N 22 30 12 16 1002.3 1001.5 0.0
22/04:00am 18.9 14.4 7.0 46 6.1 N 20 28 11 15 1002.8 1002.1 0.0
22/03:30am 18.6 14.1 6.8 46 6.0 N 20 26 11 14 1003.3 1002.5 0.0
22/03:00am 15.4 12.8 7.7 60 3.9 N 11 17 6 9 1003.6 1002.8 0.0
22/02:30am 11.0 9.8 8.2 83 1.4 NE 4 7 2 4 1004.1 1003.3 0.0
22/02:00am 10.7 10.3 8.1 84 1.3 CALM 0 0 0 0 1004.4 1003.6 0.0
22/01:30am 10.9 10.5 8.3 84 1.3 CALM 0 0 0 0 1004.7 1003.9 0.0
22/01:00am 10.4 9.8 7.5 82 1.4 CALM 0 0 0 0 1005.2 1004.4 0.0
22/12:30am 11.9 10.4 8.6 80 1.7 E 6 7 3 4 1005.3 1004.5 0.0
22/12:00am 12.5 11.0 8.4 76 2.1 E 6 11 3 6 1005.5 1004.7 0.0
 
Date/Time
EDT
Temp
°C
App
Temp
°C
Dew
Point
°C
Rel
Hum
%
Delta-T
°C
Wind Press
QNH
hPa
Press
MSL
hPa
Rain since
9am
mm
Dir  Spd
km/h
Gust
km/h
Spd
kts
Gust
kts
21/11:30pm 13.4 11.9 8.5 72 2.5 E 6 9 3 5 1005.6 1004.8 0.0
21/11:00pm 14.6 12.7 9.0 69 2.9 E 9 13 5 7 1005.7 1004.9 0.0
21/10:30pm 14.8 13.0 8.1 64 3.4 ESE 7 9 4 5 1006.0 1005.2 0.0
21/10:00pm 16.0 14.7 7.7 58 4.2 ESE 4 6 2 3 1006.4 1005.6 0.0
21/09:30pm 17.1 15.2 7.5 53 4.9 SE 7 9 4 5 1006.6 1005.9 0.0
21/09:00pm 18.8 17.5 7.6 48 5.8 S 4 6 2 3 1006.6 1005.9 0.0
21/08:30pm 20.4 16.5 7.1 42 6.8 S 17 24 9 13 1006.4 1005.6 0.0
21/08:00pm 24.8 21.0 1.7 22 11.1 WNW 11 17 6 9 1005.9 1005.1 0.0
21/07:30pm 25.4 20.8 1.5 21 11.5 NW 15 20 8 11 1005.7 1004.9 0.0
21/07:00pm 25.4 22.7 2.8 23 11.1 SE 6 9 3 5 1005.8 1005.0 0.0
21/06:30pm 25.6 22.4 2.9 23 11.2 WSW 9 15 5 8 1005.8 1005.0 0.0
21/06:00pm 26.2 22.4 4.1 24 11.2 NW 13 19 7 10 1006.1 1005.3 0.0
21/05:30pm 25.7 22.7 4.2 25 10.9 WNW 9 26 5 14 1006.3 1005.5 0.0
21/05:00pm 25.7 22.2 3.6 24 11.1 WNW 11 20 6 11 1006.7 1006.0 0.0
21/04:30pm 25.9 21.1 2.6 22 11.4 W 17 26 9 14 1007.1 1006.4 0.0
21/04:00pm 24.7 20.7 2.8 24 10.7 WSW 13 28 7 15 1007.3 1006.6 0.0
21/03:30pm 24.1 21.3 2.9 25 10.3 NW 7 17 4 9 1008.0 1007.2 0.0
21/03:00pm 23.6 20.1 3.5 27 9.9 WSW 11 22 6 12 1008.2 1007.4 0.0
21/02:30pm 22.3 18.5 3.9 30 9.0 SW 13 24 7 13 1008.8 1008.0 0.0
21/02:00pm 22.4 18.7 4.5 31 8.9 W 13 22 7 12 1009.2 1008.4 0.0
21/01:30pm 21.0 17.3 4.6 34 8.1 SW 13 24 7 13 1009.6 1008.8 0.0
21/01:00pm 19.9 15.4 4.0 35 7.7 WSW 17 24 9 13 1009.9 1009.1 0.0
21/12:30pm 19.2 16.0 4.9 39 7.0 SW 11 22 6 12 1010.4 1009.7 0.0
21/12:00pm 19.0 15.6 5.8 42 6.6 SW 13 19 7 10 1010.9 1010.2 0.0
21/11:30am 17.7 15.6 5.9 46 5.8 NW 6 11 3 6 1011.0 1010.3 0.0
21/11:00am 17.1 15.2 6.9 51 5.1 SW 6 13 3 7 1011.3 1010.6 0.0
21/10:30am 15.9 13.4 6.6 54 4.6 SW 9 15 5 8 1011.6 1010.9 0.0
21/10:00am 15.7 12.9 7.0 56 4.3 SSW 11 15 6 8 1011.6 1010.9 0.0
21/09:30am 14.6 12.2 7.2 61 3.7 SW 9 15 5 8 1011.7 1011.0 0.0
21/09:00am 14.3 12.1 7.8 65 3.3 WSW 9 13 5 7 1011.5 1010.8 0.0
21/08:30am 13.6 11.5 8.4 71 2.6 SW 9 13 5 7 1011.3 1010.6 0.0
21/08:00am 12.6 10.1 8.3 75 2.2 SW 11 15 6 8 1011.1 1010.4 0.0
21/07:30am 11.5 10.0 8.5 82 1.5 WSW 6 9 3 5 1011.0 1010.3 0.0
21/07:00am 10.3 8.1 7.7 84 1.3 SW 9 13 5 7 1010.5 1009.8 0.0
21/06:30am 9.8 7.8 7.1 83 1.3 SW 7 9 4 5 1010.2 1009.4 0.0
21/06:00am 11.1 8.8 7.6 79 1.7 SW 9 11 5 6 1010.0 1009.2 0.0
21/05:30am 12.0 9.5 8.1 77 1.9 SW 11 15 6 8 1009.9 1009.1 0.0
21/05:00am 12.4 9.5 8.1 75 2.1 SW 13 19 7 10 1009.7 1008.9 0.0
21/04:30am 12.7 9.2 7.4 70 2.6 SW 15 19 8 10 1009.4 1008.6 0.0
21/04:00am 12.9 9.5 7.8 71 2.5 SW 15 20 8 11 1009.5 1008.7 0.0
21/03:30am 12.9 9.5 7.8 71 2.5 SSW 15 20 8 11 1009.7 1008.9 0.0
21/03:00am 12.9 9.9 7.8 71 2.5 SW 13 19 7 10 1009.8 1009.0 0.0
21/02:30am 12.9 9.2 8.0 72 2.4 SSW 17 26 9 14 1009.9 1009.1 0.0
21/02:00am 13.0 8.9 8.5 74 2.3 SW 20 32 11 17 1010.2 1009.4 0.0
21/01:30am 13.1 8.6 8.4 73 2.4 SSW 22 30 12 16 1010.2 1009.4 0.0
21/01:00am 13.2 9.4 8.9 75 2.2 SSW 19 26 10 14 1010.4 1009.7 0.0
21/12:30am 13.2 9.1 8.7 74 2.3 SSW 20 30 11 16 1010.8 1010.1 0.0
21/12:00am 13.3 8.5 8.8 74 2.3 SSW 24 32 13 17 1010.7 1010.0 0.0
 
Date/Time
EDT
Temp
°C
App
Temp
°C
Dew
Point
°C
Rel
Hum
%
Delta-T
°C
Wind Press
QNH
hPa
Press
MSL
hPa
Rain since
9am
mm
Dir  Spd
km/h
Gust
km/h
Spd
kts
Gust
kts
20/11:30pm 13.5 9.2 9.2 75 2.2 SSW 22 33 12 18 1010.7 1010.0 0.0
20/11:00pm 13.6 9.0 9.5 76 2.1 SSW 24 33 13 18 1010.8 1010.1 0.0
20/10:30pm 13.6 9.9 9.5 76 2.1 SSW 19 26 10 14 1010.6 1009.9 0.0
20/10:00pm 13.5 9.5 9.2 75 2.2 SSW 20 28 11 15 1010.5 1009.8 0.0
20/09:30pm 13.9 8.9 9.7 76 2.2 SSW 26 33 14 18 1010.1 1009.3 0.0
20/09:00pm 14.2 9.7 10.2 77 2.1 SSW 24 32 13 17 1009.8 1009.0 0.0
20/08:30pm 14.6 9.4 10.2 75 2.3 SSW 28 37 15 20 1009.2 1008.4 0.0
20/08:00pm 16.1 11.4 10.6 70 3.0 SSW 26 35 14 19 1008.7 1007.9 0.0
20/07:30pm 16.4 12.5 10.9 70 3.0 SSW 22 30 12 16 1008.5 1007.7 0.0
20/07:00pm 16.0 10.6 11.0 72 2.7 SSW 30 35 16 19 1008.2 1007.4 0.0
20/06:30pm 15.1 9.5 11.5 79 2.0 SSW 32 41 17 22 1008.0 1007.2 0.0
20/06:00pm 15.3 9.8 11.9 80 1.9 SSW 32 41 17 22 1007.5 1006.8 0.0
20/05:30pm 16.5 10.7 12.7 78 2.1 SSW 35 46 19 25 1007.4 1006.7 0.0
20/05:00pm 15.9 10.5 12.8 82 1.7 SSW 33 46 18 25 1007.2 1006.5 0.0
20/04:30pm 17.6 11.7 13.5 77 2.3 SSW 37 46 20 25 1006.8 1006.1 0.0
20/04:00pm 17.3 11.5 13.8 80 2.0 SSW 37 48 20 26 1006.8 1006.1 0.0
20/03:30pm 20.4 14.1 13.4 64 4.0 SSW 39 50 21 27 1006.4 1005.6 0.0
20/03:00pm 21.4 16.3 13.8 62 4.5 S 33 43 18 23 1006.2 1005.4 0.0
20/02:30pm 22.4 17.3 13.7 58 5.1 SSW 33 50 18 27 1005.9 1005.1 0.0
20/02:00pm 22.0 17.2 14.1 61 4.7 S 32 41 17 22 1005.8 1005.0 0.0
20/01:30pm 22.6 18.1 13.9 58 5.1 S 30 39 16 21 1005.7 1004.9 0.0
20/01:00pm 22.2 18.6 14.3 61 4.7 S 26 32 14 17 1005.9 1005.1 0.0
20/12:30pm 21.1 18.0 15.6 71 3.3 SSW 26 35 14 19 1006.5 1005.8 0.0
20/12:00pm 20.1 16.6 15.5 75 2.8 S 28 35 15 19 1006.6 1005.9 0.0
20/11:30am 18.8 16.4 16.4 86 1.5 S 24 32 13 17 1006.7 1006.0 0.0
20/11:00am 17.6 15.1 17.0 96 0.4 S 26 32 14 17 1006.9 1006.2 0.0
20/10:30am 16.8 14.1 16.6 99 0.1 SSW 26 33 14 18 1006.8 1006.1 0.0
20/10:00am 17.0 14.5 17.0 100 0.0 SSW 26 33 14 18 1006.6 1005.9 0.0

Other formats

Comma delimited format used in spreadsheet applications
http://www.bom.gov.au/fwo/IDV60801/IDV60801.95840.axf

JavaScript Object Notation format (JSON) in row-major order
http://www.bom.gov.au/fwo/IDV60801/IDV60801.95840.json

Data quality

Most of these data are generated automatically and are frequently updated. Quality checks on data are not normally performed. It is possible for incorrect values to appear. Refer to information at About Latest Weather Observations and please check the disclaimer before using these data.